Time;durP1;ratioP1;P1;durP2;ratioP2;P2;SDS_P1;SDS_P2;PMS_P1;PMS_P2;Temp;Humidity;BMP_temperature;BMP_pressure;BME280_temperature;BME280_humidity;BME280_pressure;Samples;Min_cycle;Max_cycle;Signal;HPM_P1;HPM_P2
2024/04/05 00:02:17;;;;;;;2.47;0.65;;;10.50;99.90;;;;;;5029647;28;20032;-51
2024/04/05 00:04:42;;;;;;;2.47;0.63;;;10.50;99.90;;;;;;5035622;28;20179;-52
2024/04/05 00:07:08;;;;;;;1.70;1.00;;;10.50;99.90;;;;;;5035141;28;20120;-49
2024/04/05 00:09:33;;;;;;;3.10;1.27;;;10.50;99.90;;;;;;5030503;28;20056;-53
2024/04/05 00:11:59;;;;;;;3.55;1.05;;;10.50;99.90;;;;;;5036546;28;20028;-49
2024/04/05 00:14:24;;;;;;;4.05;1.00;;;10.60;99.90;;;;;;5032638;28;20037;-53
2024/04/05 00:16:50;;;;;;;3.17;0.73;;;10.60;99.90;;;;;;5029912;28;20036;-50
2024/04/05 00:19:15;;;;;;;5.10;0.98;;;10.60;99.90;;;;;;5031719;28;20445;-52
2024/04/05 00:21:41;;;;;;;2.85;1.00;;;10.60;99.90;;;;;;5049676;28;20040;-50
2024/04/05 00:24:06;;;;;;;1.40;0.75;;;10.60;99.90;;;;;;5033385;28;20033;-51
2024/04/05 00:26:32;;;;;;;4.22;0.90;;;10.60;99.90;;;;;;5037397;28;20029;-50
2024/04/05 00:28:57;;;;;;;6.78;1.67;;;10.50;99.90;;;;;;5037344;28;20033;-52
2024/04/05 00:31:23;;;;;;;3.90;1.00;;;10.50;99.90;;;;;;5036752;28;20029;-51
2024/04/05 00:33:48;;;;;;;3.58;0.98;;;10.50;99.90;;;;;;5033867;28;20406;-50
2024/04/05 00:36:15;;;;;;;2.97;1.00;;;10.50;99.90;;;;;;5034913;28;20025;-50
2024/04/05 00:38:41;;;;;;;1.15;0.70;;;10.50;99.90;;;;;;5036424;28;20028;-49
2024/04/05 00:41:06;;;;;;;1.90;1.15;;;10.60;99.90;;;;;;5033181;28;20034;-50
2024/04/05 00:43:32;;;;;;;3.97;0.77;;;10.60;99.90;;;;;;5037053;28;20032;-50
2024/04/05 00:45:58;;;;;;;2.72;1.10;;;10.60;99.90;;;;;;5032799;28;20041;-52
2024/04/05 00:48:24;;;;;;;2.53;1.02;;;10.70;99.90;;;;;;5032776;28;20074;-49
2024/04/05 00:50:54;;;;;;;2.22;0.90;;;10.70;99.90;;;;;;5036817;28;20116;-50
2024/04/05 00:53:25;;;;;;;0.88;0.65;;;10.70;99.90;;;;;;5035021;28;20040;-51
2024/04/05 00:55:53;;;;;;;3.13;0.77;;;10.70;99.90;;;;;;5035347;28;20086;-52
2024/04/05 00:58:20;;;;;;;3.70;1.10;;;10.70;99.90;;;;;;5036662;28;20059;-52
2024/04/05 01:00:45;;;;;;;2.95;1.10;;;10.70;99.90;;;;;;5038910;28;20032;-51
2024/04/05 01:03:11;;;;;;;4.53;1.08;;;10.70;99.90;;;;;;5039514;28;20028;-52
2024/04/05 01:05:39;;;;;;;6.50;1.40;;;10.80;99.90;;;;;;5036717;28;20349;-49
2024/04/05 01:08:08;;;;;;;5.75;0.95;;;10.80;99.90;;;;;;5026932;28;20026;-50
2024/04/05 01:10:35;;;;;;;4.88;0.88;;;10.80;99.90;;;;;;5030037;28;20037;-52
2024/04/05 01:13:05;;;;;;;1.25;0.80;;;10.80;99.90;;;;;;5034025;28;20044;-53
2024/04/05 01:15:31;;;;;;;2.20;1.05;;;10.80;99.90;;;;;;5032611;28;20105;-52
2024/04/05 01:18:02;;;;;;;6.30;0.95;;;10.70;99.90;;;;;;5035279;28;20044;-54
2024/04/05 01:20:30;;;;;;;4.93;0.90;;;10.80;99.90;;;;;;5029132;28;20025;-51
2024/04/05 01:23:02;;;;;;;5.13;1.15;;;10.70;99.90;;;;;;5031640;28;20569;-53
2024/04/05 01:25:27;;;;;;;4.13;1.10;;;10.70;99.90;;;;;;5034010;28;20062;-53
2024/04/05 01:27:53;;;;;;;4.30;0.88;;;10.70;99.90;;;;;;5033892;28;20450;-49
2024/04/05 01:30:19;;;;;;;5.05;1.00;;;10.60;99.90;;;;;;5036997;28;20029;-53
2024/04/05 01:32:56;;;;;;;4.10;0.95;;;10.50;99.90;;;;;;5035885;28;20033;-48
2024/04/05 01:35:22;;;;;;;3.05;1.10;;;10.40;99.90;;;;;;5034787;28;20036;-53
2024/04/05 01:37:47;;;;;;;5.30;1.02;;;10.40;99.90;;;;;;5034903;28;20028;-51
2024/04/05 01:40:13;;;;;;;4.35;1.00;;;10.30;99.90;;;;;;5033016;28;20082;-52
2024/04/05 01:42:38;;;;;;;2.70;1.05;;;10.20;99.90;;;;;;5037264;28;20029;-54
2024/04/05 01:45:04;;;;;;;4.10;1.00;;;10.10;99.90;;;;;;5032987;28;20040;-50
2024/04/05 01:47:30;;;;;;;2.42;1.08;;;10.10;99.90;;;;;;5034557;28;20031;-54
2024/04/05 01:49:56;;;;;;;7.63;1.13;;;10.00;99.90;;;;;;5035859;28;20043;-54
2024/04/05 01:52:22;;;;;;;2.47;1.00;;;10.00;99.90;;;;;;5034708;28;20064;-52
2024/04/05 01:54:48;;;;;;;6.63;1.15;;;9.90;99.90;;;;;;5034810;28;20029;-54
2024/04/05 01:57:14;;;;;;;4.93;1.10;;;9.90;99.90;;;;;;5034810;28;20028;-51
2024/04/05 01:59:39;;;;;;;5.95;1.30;;;9.80;99.90;;;;;;5030470;28;20398;-53
2024/04/05 02:02:04;;;;;;;2.95;1.50;;;9.80;99.90;;;;;;5029975;28;20018;-53
2024/04/05 02:04:30;;;;;;;1.75;0.90;;;9.80;99.90;;;;;;5036731;28;20037;-53
2024/04/05 02:06:55;;;;;;;1.75;1.10;;;9.70;99.90;;;;;;5034530;28;20370;-53
2024/04/05 02:09:21;;;;;;;4.20;1.40;;;9.70;99.90;;;;;;5030412;28;20049;-51
2024/04/05 02:11:46;;;;;;;2.13;0.77;;;9.60;99.90;;;;;;5034522;28;20021;-49
2024/04/05 02:14:12;;;;;;;4.68;0.80;;;9.60;99.90;;;;;;5034300;28;20048;-51
2024/04/05 02:16:37;;;;;;;4.00;1.58;;;9.70;99.90;;;;;;5038777;28;20070;-51
2024/04/05 02:19:03;;;;;;;6.80;1.10;;;9.60;99.90;;;;;;5038600;28;20025;-50
2024/04/05 02:21:28;;;;;;;6.18;1.08;;;9.70;99.90;;;;;;5032414;28;20152;-52
2024/04/05 02:23:53;;;;;;;4.13;0.98;;;9.70;99.90;;;;;;5033102;28;20033;-51
2024/04/05 02:26:19;;;;;;;2.28;1.00;;;9.80;99.90;;;;;;5030236;28;20061;-51
2024/04/05 02:28:45;;;;;;;4.20;1.67;;;9.70;99.90;;;;;;5038253;28;20028;-54
2024/04/05 02:31:10;;;;;;;4.03;1.17;;;9.80;99.90;;;;;;5048012;28;20029;-51
2024/04/05 02:33:36;;;;;;;4.70;0.90;;;9.90;99.90;;;;;;5043778;28;20059;-51
2024/04/05 02:36:03;;;;;;;1.63;0.80;;;10.00;99.90;;;;;;5041861;28;20028;-51
2024/04/05 02:38:28;;;;;;;3.88;0.95;;;10.00;99.90;;;;;;5037607;28;20124;-51
2024/04/05 02:40:55;;;;;;;3.67;1.00;;;10.00;99.90;;;;;;5036923;28;20104;-51
2024/04/05 02:43:21;;;;;;;5.43;1.00;;;10.00;99.90;;;;;;5033589;28;20091;-53
2024/04/05 02:45:47;;;;;;;3.47;0.98;;;10.10;99.90;;;;;;5040522;28;20057;-52
2024/04/05 02:48:12;;;;;;;3.55;0.90;;;10.10;99.90;;;;;;5033722;28;20044;-51
2024/04/05 02:50:38;;;;;;;5.93;1.10;;;10.10;99.90;;;;;;5041410;28;20405;-47
2024/04/05 02:53:04;;;;;;;2.00;1.00;;;10.20;99.90;;;;;;5039213;28;20485;-53
2024/04/05 02:55:30;;;;;;;2.72;0.95;;;10.20;99.90;;;;;;5037162;28;20025;-48
2024/04/05 02:57:56;;;;;;;3.28;1.08;;;10.20;99.90;;;;;;5037497;28;20104;-52
2024/04/05 03:00:21;;;;;;;2.30;0.80;;;10.20;99.90;;;;;;5035689;28;20512;-50
2024/04/05 03:02:47;;;;;;;4.47;1.00;;;10.20;99.90;;;;;;5035050;28;20388;-52
2024/04/05 03:05:15;;;;;;;4.55;1.08;;;10.20;99.90;;;;;;5037406;28;20032;-51
2024/04/05 03:07:40;;;;;;;2.45;0.60;;;10.20;99.90;;;;;;5039965;28;20816;-50
2024/04/05 03:10:07;;;;;;;2.60;1.05;;;10.30;99.90;;;;;;5039191;28;20049;-51
2024/04/05 03:12:33;;;;;;;2.03;1.00;;;10.30;99.90;;;;;;5037182;28;20029;-50
2024/04/05 03:14:58;;;;;;;2.90;0.80;;;10.30;99.90;;;;;;5041498;28;20123;-54
2024/04/05 03:17:24;;;;;;;5.97;1.20;;;10.30;99.90;;;;;;5036224;28;20482;-50
2024/04/05 03:19:49;;;;;;;4.13;1.27;;;10.30;99.90;;;;;;5032985;28;20090;-61
2024/04/05 03:22:15;;;;;;;3.03;0.90;;;10.30;99.90;;;;;;5036981;28;20481;-62
2024/04/05 03:24:41;;;;;;;5.68;1.20;;;10.30;99.90;;;;;;5050955;28;20035;-62
2024/04/05 03:27:06;;;;;;;8.55;1.35;;;10.30;99.90;;;;;;5044245;28;20505;-63
2024/04/05 03:29:33;;;;;;;3.47;1.02;;;10.30;99.90;;;;;;5040942;28;20033;-63
2024/04/05 03:31:58;;;;;;;3.80;1.00;;;10.30;99.90;;;;;;5036813;28;20040;-62
2024/04/05 03:34:24;;;;;;;4.60;1.60;;;10.30;99.90;;;;;;5040847;28;20024;-62
2024/04/05 03:36:49;;;;;;;4.45;1.35;;;10.30;99.90;;;;;;5037128;28;20060;-62
2024/04/05 03:39:15;;;;;;;6.32;1.55;;;10.30;99.90;;;;;;5039332;28;20043;-62
2024/04/05 03:41:40;;;;;;;7.13;1.40;;;10.30;99.90;;;;;;5032082;28;20393;-62
2024/04/05 03:44:06;;;;;;;3.45;1.40;;;10.30;99.90;;;;;;5034379;28;20033;-63
2024/04/05 03:46:37;;;;;;;4.47;1.40;;;10.30;99.90;;;;;;5034975;28;20033;-62
2024/04/05 03:49:03;;;;;;;2.83;1.60;;;10.20;99.90;;;;;;5036869;28;20444;-61
2024/04/05 03:51:29;;;;;;;5.43;1.83;;;10.20;99.90;;;;;;5042261;28;20090;-61
2024/04/05 03:53:54;;;;;;;5.60;1.40;;;10.20;99.90;;;;;;5039904;28;20072;-60
2024/04/05 03:56:20;;;;;;;5.22;1.25;;;10.20;99.90;;;;;;5038322;28;20076;-61
2024/04/05 03:58:49;;;;;;;8.60;1.58;;;10.20;99.90;;;;;;5036158;28;20029;-61
2024/04/05 04:01:15;;;;;;;1.63;1.20;;;10.20;99.90;;;;;;5040864;28;20052;-61
2024/04/05 04:03:42;;;;;;;2.75;1.00;;;10.20;99.90;;;;;;5055778;28;20029;-61
2024/04/05 04:06:08;;;;;;;3.30;1.05;;;10.30;99.90;;;;;;5040558;28;20134;-61
2024/04/05 04:08:33;;;;;;;4.07;1.20;;;10.30;99.90;;;;;;5038867;28;20513;-61
2024/04/05 04:10:59;;;;;;;3.35;1.00;;;10.30;99.90;;;;;;5032094;28;20033;-61
2024/04/05 04:13:24;;;;;;;2.15;1.23;;;10.30;99.90;;;;;;5040169;28;20064;-60
2024/04/05 04:15:50;;;;;;;4.07;1.60;;;10.30;99.90;;;;;;5041987;28;20033;-61
2024/04/05 04:18:16;;;;;;;6.40;1.17;;;10.40;99.90;;;;;;5039558;28;20021;-61
2024/04/05 04:20:41;;;;;;;2.72;0.75;;;10.40;99.90;;;;;;5035532;28;20025;-61
2024/04/05 04:23:07;;;;;;;4.68;1.35;;;10.40;99.90;;;;;;5039911;28;20017;-61
2024/04/05 04:25:33;;;;;;;3.40;1.10;;;10.40;99.90;;;;;;5040277;28;20025;-61
2024/04/05 04:27:59;;;;;;;2.20;1.00;;;10.30;99.90;;;;;;5035680;28;20064;-61
2024/04/05 04:30:25;;;;;;;3.85;1.10;;;10.30;99.90;;;;;;5041684;28;20060;-61
2024/04/05 04:32:50;;;;;;;4.25;1.63;;;10.30;99.90;;;;;;5040170;28;20021;-62
2024/04/05 04:35:16;;;;;;;4.15;1.10;;;10.20;99.90;;;;;;5039465;28;20448;-61
2024/04/05 04:37:41;;;;;;;5.82;1.15;;;10.20;99.90;;;;;;5040063;28;20020;-62
2024/04/05 04:40:11;;;;;;;4.10;1.00;;;10.20;99.90;;;;;;5032756;28;20545;-62
2024/04/05 04:42:37;;;;;;;2.22;1.02;;;10.20;99.90;;;;;;5046855;28;20029;-62
2024/04/05 04:45:05;;;;;;;3.53;1.40;;;10.20;99.90;;;;;;5034923;28;20370;-61
2024/04/05 04:47:31;;;;;;;4.03;1.27;;;10.20;99.90;;;;;;5032432;28;20029;-61
2024/04/05 04:49:56;;;;;;;4.53;1.17;;;10.20;99.90;;;;;;5041341;28;20040;-62
2024/04/05 04:52:22;;;;;;;2.70;1.00;;;10.20;99.90;;;;;;5035482;28;20396;-63
2024/04/05 04:54:47;;;;;;;5.50;1.25;;;10.30;99.90;;;;;;5032457;28;20114;-62
2024/04/05 04:57:13;;;;;;;6.88;1.40;;;10.40;99.90;;;;;;5037289;28;20021;-62
2024/04/05 04:59:39;;;;;;;5.03;1.10;;;10.40;99.90;;;;;;5035603;28;20064;-62
2024/04/05 05:02:04;;;;;;;2.38;1.08;;;10.50;99.90;;;;;;5035058;28;20123;-61
2024/04/05 05:04:30;;;;;;;4.75;1.40;;;10.60;99.90;;;;;;5037516;28;20036;-62
2024/04/05 05:06:55;;;;;;;3.53;1.20;;;10.60;99.90;;;;;;5032487;28;20549;-62
2024/04/05 05:09:21;;;;;;;2.90;1.15;;;10.60;99.90;;;;;;5038062;28;20044;-62
2024/04/05 05:11:47;;;;;;;2.22;1.10;;;10.60;99.90;;;;;;5039783;28;20556;-61
2024/04/05 05:14:12;;;;;;;3.95;1.13;;;10.60;99.90;;;;;;5039164;28;20108;-61
2024/04/05 05:16:38;;;;;;;6.68;1.30;;;10.60;99.90;;;;;;5035808;28;20111;-61
2024/04/05 05:19:04;;;;;;;5.88;1.00;;;10.60;99.90;;;;;;5034104;28;20032;-60
2024/04/05 05:21:34;;;;;;;4.72;1.20;;;10.70;99.90;;;;;;5040806;28;20075;-62
2024/04/05 05:24:00;;;;;;;4.63;1.15;;;10.80;99.90;;;;;;5036112;28;20025;-63
2024/04/05 05:26:25;;;;;;;3.58;1.30;;;11.20;99.90;;;;;;5034483;28;20540;-62
2024/04/05 05:28:51;;;;;;;5.82;1.40;;;11.50;99.90;;;;;;5038904;28;20493;-62
2024/04/05 05:31:16;;;;;;;2.47;1.13;;;12.10;99.90;;;;;;5054394;28;20128;-62
2024/04/05 05:33:41;;;;;;;6.88;1.35;;;12.80;99.90;;;;;;5038975;28;20493;-62
2024/04/05 05:36:07;;;;;;;4.95;1.25;;;13.40;99.90;;;;;;5040817;28;20044;-62
2024/04/05 05:38:32;;;;;;;5.90;1.40;;;13.70;99.90;;;;;;5038775;28;20029;-58
2024/04/05 05:40:58;;;;;;;6.13;1.38;;;14.20;99.90;;;;;;5035676;28;20358;-62
2024/04/05 05:43:23;;;;;;;3.72;1.30;;;14.80;99.00;;;;;;5038857;28;20029;-62
2024/04/05 05:45:49;;;;;;;2.72;0.98;;;15.40;99.20;;;;;;5039134;28;20440;-62
2024/04/05 05:48:14;;;;;;;5.03;1.40;;;16.00;96.70;;;;;;5038784;28;20061;-62
2024/04/05 05:50:42;;;;;;;3.03;1.33;;;16.60;94.90;;;;;;5047452;28;20267;-62
2024/04/05 05:53:07;;;;;;;5.07;1.02;;;17.10;93.60;;;;;;5035051;28;20033;-62
2024/04/05 05:55:32;;;;;;;5.38;1.25;;;17.80;91.90;;;;;;5038635;28;20044;-63
2024/04/05 05:57:58;;;;;;;3.90;1.25;;;18.30;90.40;;;;;;5039078;28;20063;-62
2024/04/05 06:00:24;;;;;;;6.18;1.30;;;18.70;90.10;;;;;;5038602;28;20374;-62
2024/04/05 06:02:50;;;;;;;6.43;1.63;;;18.90;83.20;;;;;;5034126;28;20027;-61
2024/04/05 06:05:19;;;;;;;4.32;1.30;;;19.20;86.30;;;;;;5041993;28;20392;-62
2024/04/05 06:07:45;;;;;;;3.75;1.50;;;19.50;82.90;;;;;;5040302;28;20417;-62
2024/04/05 06:10:11;;;;;;;6.57;1.80;;;19.80;81.10;;;;;;5039197;28;20121;-62
2024/04/05 06:12:39;;;;;;;5.78;2.08;;;19.90;75.20;;;;;;5042004;28;20017;-63
2024/04/05 06:15:04;;;;;;;4.07;1.40;;;20.30;76.50;;;;;;5034237;28;20018;-63
2024/04/05 06:17:34;;;;;;;7.00;2.03;;;20.70;74.50;;;;;;5040688;28;20040;-62
2024/04/05 06:19:59;;;;;;;6.07;1.70;;;21.00;72.20;;;;;;5040709;28;20397;-62
2024/04/05 06:22:26;;;;;;;5.00;1.70;;;21.20;70.10;;;;;;5042331;28;20526;-62
2024/04/05 06:24:52;;;;;;;4.45;1.35;;;21.60;69.40;;;;;;5044196;28;20035;-62
2024/04/05 06:27:18;;;;;;;8.02;1.85;;;21.70;67.60;;;;;;5042285;28;20057;-63
2024/04/05 06:29:52;;;;;;;3.72;1.52;;;22.00;66.20;;;;;;5038332;28;20397;-62
2024/04/05 06:32:17;;;;;;;6.70;1.70;;;22.40;64.40;;;;;;5033732;28;20029;-61
2024/04/05 06:34:44;;;;;;;4.85;1.55;;;22.80;63.60;;;;;;5040543;28;20384;-61
2024/04/05 06:37:11;;;;;;;4.78;1.50;;;23.10;62.50;;;;;;5057423;28;20447;-59
2024/04/05 06:39:37;;;;;;;4.82;1.50;;;23.40;60.50;;;;;;5027989;28;20044;-61
2024/04/05 06:42:02;;;;;;;5.45;1.60;;;23.60;58.10;;;;;;5042024;28;20493;-61
2024/04/05 06:44:31;;;;;;;5.95;2.17;;;23.80;55.80;;;;;;5043652;28;20071;-61
2024/04/05 06:46:58;;;;;;;2.72;1.55;;;24.10;56.60;;;;;;5039783;28;20032;-61
2024/04/05 06:49:24;;;;;;;5.68;1.83;;;24.10;55.00;;;;;;5039141;28;20493;-61
2024/04/05 06:51:49;;;;;;;6.07;2.05;;;24.10;51.00;;;;;;5041789;28;20107;-61
2024/04/05 06:54:16;;;;;;;5.22;1.58;;;24.20;50.80;;;;;;5041377;28;20090;-62
2024/04/05 06:56:42;;;;;;;5.00;1.35;;;24.10;50.10;;;;;;5033291;28;20044;-61
2024/04/05 06:59:07;;;;;;;3.88;1.50;;;23.90;50.10;;;;;;5041316;28;20536;-61
2024/04/05 07:01:33;;;;;;;4.85;1.77;;;23.60;48.90;;;;;;5042978;28;20029;-61
2024/04/05 07:03:58;;;;;;;5.50;1.63;;;23.50;49.70;;;;;;5042717;28;20096;-62
2024/04/05 07:06:24;;;;;;;5.30;1.45;;;23.50;49.30;;;;;;5041131;28;20021;-61
2024/04/05 07:08:49;;;;;;;5.13;1.70;;;23.60;48.10;;;;;;5041004;28;20099;-62
2024/04/05 07:11:15;;;;;;;4.10;1.45;;;23.20;48.00;;;;;;5041485;28;20090;-61
2024/04/05 07:13:40;;;;;;;6.88;1.73;;;22.70;49.00;;;;;;5040862;28;20508;-61
2024/04/05 07:16:09;;;;;;;6.30;2.00;;;22.60;44.00;;;;;;5042522;28;20067;-61
2024/04/05 07:18:34;;;;;;;8.00;2.03;;;22.70;46.70;;;;;;5038465;28;20024;-61
2024/04/05 07:21:01;;;;;;;2.90;1.50;;;23.10;46.20;;;;;;5041103;28;20033;-62
2024/04/05 07:23:26;;;;;;;4.15;1.65;;;23.20;43.50;;;;;;5040892;28;20025;-61
2024/04/05 07:25:53;;;;;;;6.28;1.40;;;23.20;43.50;;;;;;5041136;28;20048;-61
2024/04/05 07:28:18;;;;;;;4.40;1.45;;;23.20;43.60;;;;;;5040685;28;20032;-61
2024/04/05 07:30:44;;;;;;;5.30;1.48;;;23.70;43.50;;;;;;5056346;28;20017;-61
2024/04/05 07:33:09;;;;;;;4.95;1.23;;;24.10;43.00;;;;;;5040699;28;20036;-61
2024/04/05 07:35:35;;;;;;;8.00;1.92;;;24.40;42.20;;;;;;5042548;28;20087;-61
2024/04/05 07:38:00;;;;;;;4.45;1.83;;;24.60;41.00;;;;;;5040904;28;20056;-61
2024/04/05 07:40:27;;;;;;;4.20;1.70;;;24.80;40.50;;;;;;5037584;28;20041;-61
2024/04/05 07:42:54;;;;;;;4.90;1.70;;;24.90;39.50;;;;;;5036697;28;20448;-61
2024/04/05 07:45:21;;;;;;;5.50;1.88;;;25.20;39.50;;;;;;5040709;28;20021;-61
2024/04/05 07:47:48;;;;;;;6.28;1.67;;;25.50;39.00;;;;;;5040271;28;20052;-61
2024/04/05 07:50:21;;;;;;;7.25;1.85;;;25.90;38.30;;;;;;5040353;28;20328;-61
2024/04/05 07:52:50;;;;;;;5.47;1.80;;;26.10;35.60;;;;;;5036442;28;20106;-61
2024/04/05 07:55:16;;;;;;;4.45;1.70;;;26.20;35.10;;;;;;5040552;28;20036;-61
2024/04/05 07:57:44;;;;;;;4.47;2.03;;;26.00;35.00;;;;;;5041947;28;20051;-61
2024/04/05 08:00:14;;;;;;;4.22;1.75;;;25.90;34.30;;;;;;5037912;28;20382;-61
2024/04/05 08:02:46;;;;;;;9.00;2.35;;;25.60;32.70;;;;;;5038356;28;20033;-61
2024/04/05 08:05:11;;;;;;;4.35;1.50;;;25.20;29.70;;;;;;5042209;28;20537;-61
2024/04/05 08:07:37;;;;;;;4.28;1.65;;;25.10;33.90;;;;;;5040188;28;20033;-61
2024/04/05 08:10:03;;;;;;;5.32;1.85;;;24.90;32.90;;;;;;5038638;28;20114;-61
2024/04/05 08:12:28;;;;;;;4.65;1.63;;;23.90;33.00;;;;;;5040210;28;20027;-61
2024/04/05 08:14:54;;;;;;;5.25;1.63;;;23.40;33.80;;;;;;5038945;28;20120;-61
2024/04/05 08:17:19;;;;;;;7.65;1.95;;;23.60;33.90;;;;;;5040067;28;20684;-60
2024/04/05 08:19:45;;;;;;;5.70;2.17;;;23.50;33.30;;;;;;5041964;28;20362;-61
2024/04/05 08:22:11;;;;;;;5.80;2.05;;;23.70;33.20;;;;;;5039752;28;20473;-60
2024/04/05 08:24:36;;;;;;;7.35;1.60;;;23.90;33.30;;;;;;5040163;28;20017;-62
2024/04/05 08:27:02;;;;;;;7.07;1.88;;;24.20;33.00;;;;;;5039640;28;20040;-61
2024/04/05 08:29:28;;;;;;;6.75;2.10;;;24.40;32.70;;;;;;5039423;28;20033;-61
2024/04/05 08:31:53;;;;;;;5.20;2.00;;;24.50;32.40;;;;;;5041103;28;20025;-62
2024/04/05 08:34:20;;;;;;;5.13;2.00;;;24.60;31.90;;;;;;5041308;28;20021;-61
2024/04/05 08:36:49;;;;;;;6.72;2.25;;;24.70;31.60;;;;;;5039894;28;20025;-61
2024/04/05 08:39:18;;;;;;;5.10;2.15;;;24.70;31.20;;;;;;5033528;28;20078;-61
2024/04/05 08:41:48;;;;;;;5.68;1.75;;;24.70;31.00;;;;;;5039583;28;20100;-61
2024/04/05 08:44:14;;;;;;;10.27;2.78;;;23.90;28.70;;;;;;5035127;28;20036;-61
2024/04/05 08:46:40;;;;;;;5.38;2.25;;;23.60;30.10;;;;;;5038171;28;20033;-61
2024/04/05 08:49:07;;;;;;;11.60;2.60;;;23.50;30.90;;;;;;5039467;28;20033;-61
2024/04/05 08:51:35;;;;;;;10.15;2.67;;;22.80;30.10;;;;;;5039256;28;20032;-61
2024/04/05 08:54:01;;;;;;;10.45;2.20;;;22.30;31.60;;;;;;5039348;28;20102;-61
2024/04/05 08:56:29;;;;;;;6.22;2.00;;;22.10;32.10;;;;;;5039468;28;20489;-61
2024/04/05 08:58:55;;;;;;;7.70;2.10;;;22.00;32.50;;;;;;5038873;28;20128;-61
2024/04/05 09:01:21;;;;;;;7.57;2.38;;;21.80;32.80;;;;;;5041235;28;20017;-61
2024/04/05 09:03:49;;;;;;;12.85;2.85;;;21.30;33.00;;;;;;5039140;28;20032;-61
2024/04/05 09:06:16;;;;;;;9.05;2.42;;;21.10;33.50;;;;;;5038869;28;20037;-61
2024/04/05 09:08:44;;;;;;;6.63;2.13;;;20.80;34.00;;;;;;5037566;28;20020;-61
2024/04/05 09:11:19;;;;;;;8.15;2.15;;;20.60;34.30;;;;;;5039648;28;20466;-61
2024/04/05 09:13:54;;;;;;;10.20;2.33;;;20.60;34.80;;;;;;5039178;28;20464;-61
2024/04/05 09:16:23;;;;;;;6.60;1.77;;;20.70;34.90;;;;;;5039130;28;20074;-61
2024/04/05 09:18:49;;;;;;;7.15;2.03;;;21.20;34.70;;;;;;5039010;28;20048;-61
2024/04/05 09:21:17;;;;;;;12.40;2.67;;;21.30;34.70;;;;;;5034609;28;20570;-61
2024/04/05 09:23:49;;;;;;;8.35;2.03;;;21.40;34.40;;;;;;5041493;28;20116;-57
2024/04/05 09:26:19;;;;;;;10.55;2.65;;;21.60;34.10;;;;;;5038130;28;20017;-59
2024/04/05 09:28:46;;;;;;;6.60;2.30;;;21.60;34.30;;;;;;5038858;28;20253;-61
2024/04/05 09:31:18;;;;;;;9.93;2.92;;;21.60;34.20;;;;;;5038783;28;20393;-61
2024/04/05 09:33:43;;;;;;;6.45;2.28;;;21.50;34.30;;;;;;5038355;28;20029;-61
2024/04/05 09:36:13;;;;;;;7.47;1.98;;;21.60;34.50;;;;;;5038941;28;20158;-61
2024/04/05 09:38:40;;;;;;;7.03;1.98;;;21.60;34.40;;;;;;5029931;28;20090;-61
2024/04/05 09:41:07;;;;;;;9.45;2.78;;;21.80;34.70;;;;;;5043767;28;20114;-61
2024/04/05 09:43:32;;;;;;;9.13;1.92;;;22.00;34.50;;;;;;5047548;28;20504;-61
2024/04/05 09:45:59;;;;;;;8.30;1.60;;;22.20;33.90;;;;;;5043949;28;20029;-61
2024/04/05 09:48:31;;;;;;;4.72;2.00;;;22.20;34.00;;;;;;5045058;28;20020;-61
2024/04/05 09:50:59;;;;;;;6.70;1.75;;;22.30;34.00;;;;;;5060798;28;20076;-61
2024/04/05 09:53:26;;;;;;;8.27;1.77;;;22.30;33.70;;;;;;5037020;28;20471;-61
2024/04/05 09:55:57;;;;;;;5.50;2.00;;;22.20;33.70;;;;;;5044860;28;20029;-61
2024/04/05 09:58:22;;;;;;;6.45;2.40;;;22.10;33.50;;;;;;5044768;28;20029;-61
2024/04/05 10:00:48;;;;;;;9.77;2.05;;;21.70;33.50;;;;;;5044958;28;20276;-61
2024/04/05 10:03:14;;;;;;;7.57;2.10;;;21.60;33.80;;;;;;5044976;28;20044;-60
2024/04/05 10:05:39;;;;;;;4.55;1.65;;;21.40;33.90;;;;;;5044786;28;20096;-60
2024/04/05 10:08:10;;;;;;;8.52;2.03;;;21.20;34.30;;;;;;5047327;28;20060;-61
2024/04/05 10:10:36;;;;;;;8.70;2.22;;;21.00;34.80;;;;;;5042839;28;20052;-61
2024/04/05 10:13:15;;;;;;;11.52;2.72;;;20.90;34.90;;;;;;5060098;28;20033;-61
2024/04/05 10:16:01;;;;;;;8.27;2.40;;;20.70;35.80;;;;;;5042156;28;20031;-60
2024/04/05 10:18:34;;;;;;;6.70;1.95;;;20.30;36.30;;;;;;5044617;28;20036;-61
2024/04/05 10:21:08;;;;;;;9.77;2.60;;;20.10;36.50;;;;;;5044707;28;20035;-61
2024/04/05 10:23:35;;;;;;;11.60;2.28;;;20.00;37.10;;;;;;5043340;28;20032;-61
2024/04/05 10:26:01;;;;;;;4.68;1.63;;;20.00;37.20;;;;;;5045108;28;20051;-61
2024/04/05 10:28:30;;;;;;;7.38;2.08;;;20.10;37.30;;;;;;5044966;28;20489;-61
2024/04/05 10:31:00;;;;;;;6.68;1.80;;;20.20;37.20;;;;;;5044843;28;20029;-61
2024/04/05 10:33:26;;;;;;;8.10;2.05;;;20.50;37.70;;;;;;5044917;28;20021;-61
2024/04/05 10:35:58;;;;;;;9.10;2.90;;;20.60;38.20;;;;;;5045097;28;20036;-61
2024/04/05 10:38:23;;;;;;;4.90;2.08;;;20.40;39.50;;;;;;5034009;28;20043;-60
2024/04/05 10:41:02;;;;;;;6.47;1.70;;;20.20;40.00;;;;;;5033396;28;20025;-61
2024/04/05 10:43:28;;;;;;;8.30;1.67;;;20.00;40.70;;;;;;5036976;28;20271;-61
2024/04/05 10:45:55;;;;;;;4.45;1.60;;;19.90;41.00;;;;;;5037792;28;20427;-61
2024/04/05 10:48:24;;;;;;;6.32;2.20;;;19.80;41.30;;;;;;5036734;28;20025;-60
2024/04/05 10:50:52;;;;;;;9.07;1.85;;;19.90;41.70;;;;;;5044107;28;20091;-60
2024/04/05 10:53:19;;;;;;;4.40;1.25;;;19.80;42.20;;;;;;5038978;28;20029;-61
2024/04/05 10:55:45;;;;;;;7.32;2.13;;;19.80;42.20;;;;;;5032504;28;20025;-61
2024/04/05 10:58:12;;;;;;;8.68;1.85;;;19.70;43.50;;;;;;5036917;28;20274;-60
2024/04/05 11:00:38;;;;;;;8.13;2.10;;;19.60;43.50;;;;;;5039456;28;20534;-61
2024/04/05 11:03:07;;;;;;;4.50;1.88;;;19.50;44.20;;;;;;5035294;28;20336;-61
2024/04/05 11:05:34;;;;;;;5.55;1.73;;;19.60;44.70;;;;;;5033272;28;20038;-61
2024/04/05 11:08:03;;;;;;;6.32;1.60;;;19.70;43.80;;;;;;5040384;28;20037;-61
2024/04/05 11:10:30;;;;;;;6.70;1.40;;;19.80;43.90;;;;;;5034173;28;20047;-61
2024/04/05 11:12:56;;;;;;;6.28;1.88;;;19.90;43.80;;;;;;5033388;28;20053;-60
2024/04/05 11:15:22;;;;;;;4.20;1.35;;;20.10;43.50;;;;;;5042775;28;20505;-62
2024/04/05 11:18:05;;;;;;;5.43;1.25;;;20.30;43.10;;;;;;5037129;28;20067;-61
2024/04/05 11:20:31;;;;;;;5.93;1.50;;;20.50;43.70;;;;;;5038520;28;20392;-61
2024/04/05 11:23:04;;;;;;;3.97;1.40;;;20.60;43.00;;;;;;5040972;28;20029;-61
2024/04/05 11:25:31;;;;;;;6.57;1.63;;;20.70;42.90;;;;;;5040910;28;20032;-61
2024/04/05 11:27:57;;;;;;;12.75;2.30;;;20.60;43.00;;;;;;5041462;28;20088;-61
2024/04/05 11:30:24;;;;;;;9.45;2.15;;;20.50;42.90;;;;;;5042306;28;20032;-61
2024/04/05 11:32:50;;;;;;;3.85;1.65;;;20.30;43.60;;;;;;5038809;28;20016;-61
2024/04/05 11:35:15;;;;;;;7.57;2.13;;;20.20;43.70;;;;;;5040740;28;20494;-61
2024/04/05 11:37:43;;;;;;;6.10;1.90;;;20.20;44.00;;;;;;5040552;28;20388;-61
2024/04/05 11:40:10;;;;;;;4.68;1.40;;;20.10;44.10;;;;;;5033440;28;20222;-61
2024/04/05 11:42:39;;;;;;;7.40;1.90;;;20.10;44.20;;;;;;5040845;28;20341;-60
2024/04/05 11:45:06;;;;;;;5.53;1.70;;;20.10;44.20;;;;;;5036516;28;20033;-60
2024/04/05 11:47:34;;;;;;;4.80;1.52;;;20.10;44.20;;;;;;5040420;28;20096;-60
2024/04/05 11:50:00;;;;;;;5.38;1.65;;;20.10;44.50;;;;;;5036548;28;20095;-60
2024/04/05 11:52:27;;;;;;;3.22;1.27;;;20.10;44.50;;;;;;5037956;28;20032;-61
2024/04/05 11:54:53;;;;;;;4.82;1.73;;;20.00;44.40;;;;;;5032393;28;20037;-61
2024/04/05 11:57:18;;;;;;;5.22;1.85;;;19.90;44.80;;;;;;5033747;28;20394;-60
2024/04/05 11:59:44;;;;;;;9.30;1.88;;;19.70;45.10;;;;;;5032270;28;20451;-61
2024/04/05 12:02:10;;;;;;;5.03;1.77;;;19.60;45.50;;;;;;5035323;28;20047;-60
2024/04/05 12:04:37;;;;;;;8.07;1.88;;;19.50;45.50;;;;;;5032665;28;20017;-60
2024/04/05 12:07:04;;;;;;;5.28;1.50;;;19.30;46.30;;;;;;5033917;28;20481;-60
2024/04/05 12:09:29;;;;;;;6.53;2.05;;;19.20;46.40;;;;;;5033684;28;20174;-60
2024/04/05 12:11:54;;;;;;;5.55;1.40;;;19.20;46.80;;;;;;5032078;28;20095;-60
2024/04/05 12:14:20;;;;;;;6.63;1.77;;;19.20;46.70;;;;;;5055006;28;20385;-60
2024/04/05 12:16:46;;;;;;;6.85;1.92;;;19.10;47.80;;;;;;5031947;28;20021;-60
2024/04/05 12:19:11;;;;;;;8.25;2.17;;;19.00;47.50;;;;;;5039450;28;20366;-59
2024/04/05 12:21:37;;;;;;;3.50;1.27;;;19.20;47.40;;;;;;5034611;28;20037;-61
2024/04/05 12:24:02;;;;;;;5.75;1.85;;;19.50;46.90;;;;;;5032635;28;20029;-60
2024/04/05 12:26:28;;;;;;;7.07;2.35;;;19.80;45.50;;;;;;5034721;28;20935;-61
2024/04/05 12:28:56;;;;;;;8.32;2.10;;;20.00;45.30;;;;;;5032001;28;20025;-60
2024/04/05 12:31:22;;;;;;;4.50;1.75;;;19.90;45.10;;;;;;5039726;28;20025;-60
2024/04/05 12:33:47;;;;;;;4.47;1.73;;;19.80;45.00;;;;;;5039386;28;20025;-60
2024/04/05 12:36:17;;;;;;;6.50;2.00;;;19.80;45.00;;;;;;5041784;28;20224;-60
2024/04/05 12:38:46;;;;;;;4.55;1.38;;;19.70;44.90;;;;;;5031595;28;20095;-60
2024/04/05 12:41:12;;;;;;;6.65;1.67;;;19.70;44.50;;;;;;5037319;28;20028;-60
2024/04/05 12:43:38;;;;;;;3.67;1.10;;;19.60;44.60;;;;;;5039731;28;20021;-60
2024/04/05 12:46:06;;;;;;;6.05;1.45;;;19.70;44.80;;;;;;5031433;28;20033;-60